sensor_id;sensor_type;location;lat;lon;timestamp;pressure;altitude;pressure_sealevel;temperature;humidity
37892;BME280;45797;47.466;9.486;2023-03-09T00:01:38;93920.09;;;12.95;59.14
37892;BME280;45797;47.466;9.486;2023-03-09T00:06:42;93923.53;;;12.96;59.05
37892;BME280;45797;47.466;9.486;2023-03-09T00:11:44;93921.41;;;12.99;58.69
37892;BME280;45797;47.466;9.486;2023-03-09T00:16:46;93948.63;;;13.06;58.57
37892;BME280;45797;47.466;9.486;2023-03-09T00:21:49;93953.63;;;12.93;59.15
37892;BME280;45797;47.466;9.486;2023-03-09T00:26:55;93971.88;;;12.78;59.57
37892;BME280;45797;47.466;9.486;2023-03-09T00:31:57;93967.97;;;12.74;59.60
37892;BME280;45797;47.466;9.486;2023-03-09T00:37:00;93962.53;;;12.76;59.57
37892;BME280;45797;47.466;9.486;2023-03-09T00:42:10;93953.38;;;12.72;59.80
37892;BME280;45797;47.466;9.486;2023-03-09T00:47:18;93934.63;;;12.75;59.32
37892;BME280;45797;47.466;9.486;2023-03-09T00:52:20;93930.34;;;12.82;59.41
37892;BME280;45797;47.466;9.486;2023-03-09T00:57:21;93928.16;;;12.94;59.22
37892;BME280;45797;47.466;9.486;2023-03-09T01:02:26;93923.28;;;13.13;58.74
37892;BME280;45797;47.466;9.486;2023-03-09T01:07:28;93962.97;;;13.35;58.13
37892;BME280;45797;47.466;9.486;2023-03-09T01:12:35;94007.59;;;13.51;57.60
37892;BME280;45797;47.466;9.486;2023-03-09T01:17:44;93932.22;;;12.57;60.04
37892;BME280;45797;47.466;9.486;2023-03-09T01:22:45;93923.81;;;12.06;61.26
37892;BME280;45797;47.466;9.486;2023-03-09T01:27:46;93980.72;;;11.89;61.69
37892;BME280;45797;47.466;9.486;2023-03-09T01:32:52;93923.31;;;12.02;61.54
37892;BME280;45797;47.466;9.486;2023-03-09T01:37:53;93928.88;;;12.24;60.90
37892;BME280;45797;47.466;9.486;2023-03-09T01:48:34;94001.56;;;12.87;58.94
37892;BME280;45797;47.466;9.486;2023-03-09T01:53:36;93938.41;;;13.20;57.93
37892;BME280;45797;47.466;9.486;2023-03-09T01:58:38;93930.13;;;13.31;58.05
37892;BME280;45797;47.466;9.486;2023-03-09T02:03:42;93943.88;;;13.41;57.76
37892;BME280;45797;47.466;9.486;2023-03-09T02:09:23;93904.06;;;13.44;57.50
37892;BME280;45797;47.466;9.486;2023-03-09T02:14:27;93879.69;;;13.50;57.48
37892;BME280;45797;47.466;9.486;2023-03-09T02:30:10;93917.28;;;13.59;57.23
37892;BME280;45797;47.466;9.486;2023-03-09T02:35:15;93916.22;;;13.68;56.70
37892;BME280;45797;47.466;9.486;2023-03-09T02:40:35;93929.31;;;13.76;56.93
37892;BME280;45797;47.466;9.486;2023-03-09T02:45:40;93968.91;;;13.83;56.16
37892;BME280;45797;47.466;9.486;2023-03-09T02:50:59;93950.47;;;13.83;56.49
37892;BME280;45797;47.466;9.486;2023-03-09T02:56:02;93953.94;;;13.60;56.50
37892;BME280;45797;47.466;9.486;2023-03-09T03:01:05;93953.38;;;13.42;57.08
37892;BME280;45797;47.466;9.486;2023-03-09T03:06:19;93995.91;;;13.14;57.79
37892;BME280;45797;47.466;9.486;2023-03-09T03:11:20;93944.13;;;12.84;58.56
37892;BME280;45797;47.466;9.486;2023-03-09T03:16:22;93939.47;;;12.55;59.32
37892;BME280;45797;47.466;9.486;2023-03-09T03:21:27;93955.44;;;12.37;59.69
37892;BME280;45797;47.466;9.486;2023-03-09T03:26:37;93963.97;;;12.31;59.81
37892;BME280;45797;47.466;9.486;2023-03-09T03:31:42;93969.22;;;12.31;59.83
37892;BME280;45797;47.466;9.486;2023-03-09T03:36:44;93944.94;;;12.37;59.54
37892;BME280;45797;47.466;9.486;2023-03-09T03:41:48;93965.28;;;12.43;59.40
37892;BME280;45797;47.466;9.486;2023-03-09T03:46:53;93991.00;;;12.48;59.07
37892;BME280;45797;47.466;9.486;2023-03-09T03:52:05;94002.97;;;12.50;59.12
37892;BME280;45797;47.466;9.486;2023-03-09T03:57:07;94029.75;;;12.54;58.72
37892;BME280;45797;47.466;9.486;2023-03-09T04:02:20;94031.22;;;12.56;58.82
37892;BME280;45797;47.466;9.486;2023-03-09T04:07:30;94064.19;;;12.59;59.03
37892;BME280;45797;47.466;9.486;2023-03-09T04:12:31;94040.91;;;12.48;59.20
37892;BME280;45797;47.466;9.486;2023-03-09T04:17:49;94034.38;;;12.27;59.77
37892;BME280;45797;47.466;9.486;2023-03-09T04:22:56;94033.38;;;12.20;59.98
37892;BME280;45797;47.466;9.486;2023-03-09T04:27:59;94060.78;;;12.18;60.03
37892;BME280;45797;47.466;9.486;2023-03-09T04:33:12;94059.44;;;12.22;60.03
37892;BME280;45797;47.466;9.486;2023-03-09T04:38:14;94115.56;;;12.21;60.17
37892;BME280;45797;47.466;9.486;2023-03-09T04:43:29;94124.22;;;11.97;60.94
37892;BME280;45797;47.466;9.486;2023-03-09T04:48:30;94152.88;;;11.82;61.89
37892;BME280;45797;47.466;9.486;2023-03-09T04:53:39;94170.78;;;11.61;61.95
37892;BME280;45797;47.466;9.486;2023-03-09T04:58:40;94196.31;;;11.51;62.65
37892;BME280;45797;47.466;9.486;2023-03-09T05:03:51;94215.38;;;11.35;63.02
37892;BME280;45797;47.466;9.486;2023-03-09T05:08:58;94247.31;;;11.30;63.27
37892;BME280;45797;47.466;9.486;2023-03-09T05:14:01;94311.88;;;10.96;64.30
37892;BME280;45797;47.466;9.486;2023-03-09T05:19:04;94310.53;;;10.28;65.77
37892;BME280;45797;47.466;9.486;2023-03-09T05:24:20;94319.06;;;9.84;66.47
37892;BME280;45797;47.466;9.486;2023-03-09T05:29:20;94324.50;;;9.63;66.68
37892;BME280;45797;47.466;9.486;2023-03-09T05:34:21;94339.84;;;9.48;67.37
37892;BME280;45797;47.466;9.486;2023-03-09T05:39:23;94340.09;;;9.35;67.70
37892;BME280;45797;47.466;9.486;2023-03-09T05:44:25;94353.59;;;9.31;68.31
37892;BME280;45797;47.466;9.486;2023-03-09T05:49:42;94371.06;;;9.21;67.98
37892;BME280;45797;47.466;9.486;2023-03-09T05:54:53;94371.47;;;9.16;68.36
37892;BME280;45797;47.466;9.486;2023-03-09T06:00:02;94395.41;;;9.21;68.34
37892;BME280;45797;47.466;9.486;2023-03-09T06:05:14;94385.22;;;9.28;68.43
37892;BME280;45797;47.466;9.486;2023-03-09T06:10:21;94392.09;;;9.29;68.41
37892;BME280;45797;47.466;9.486;2023-03-09T06:15:25;94393.19;;;9.36;68.21
37892;BME280;45797;47.466;9.486;2023-03-09T06:20:33;94409.97;;;9.43;68.33
37892;BME280;45797;47.466;9.486;2023-03-09T06:25:37;94429.75;;;9.45;68.27
37892;BME280;45797;47.466;9.486;2023-03-09T06:30:38;94445.59;;;9.44;68.62
37892;BME280;45797;47.466;9.486;2023-03-09T06:35:44;94461.69;;;9.49;68.54
37892;BME280;45797;47.466;9.486;2023-03-09T06:40:47;94465.53;;;9.64;68.55
37892;BME280;45797;47.466;9.486;2023-03-09T06:45:49;94474.91;;;9.67;68.48
37892;BME280;45797;47.466;9.486;2023-03-09T06:51:05;94474.63;;;9.70;68.30
37892;BME280;45797;47.466;9.486;2023-03-09T06:56:06;94466.78;;;9.80;68.61
37892;BME280;45797;47.466;9.486;2023-03-09T07:01:10;94490.44;;;9.88;68.33
37892;BME280;45797;47.466;9.486;2023-03-09T07:06:11;94497.47;;;9.87;68.49
37892;BME280;45797;47.466;9.486;2023-03-09T07:11:32;94509.00;;;9.85;68.49
37892;BME280;45797;47.466;9.486;2023-03-09T07:16:35;94504.88;;;9.92;68.41
37892;BME280;45797;47.466;9.486;2023-03-09T07:21:44;94513.16;;;9.97;67.99
37892;BME280;45797;47.466;9.486;2023-03-09T07:26:48;94524.25;;;10.18;67.29
37892;BME280;45797;47.466;9.486;2023-03-09T07:31:49;94568.88;;;10.46;66.87
37892;BME280;45797;47.466;9.486;2023-03-09T07:36:56;94545.41;;;10.73;66.51
37892;BME280;45797;47.466;9.486;2023-03-09T07:41:58;94540.66;;;10.86;66.04
37892;BME280;45797;47.466;9.486;2023-03-09T07:47:00;94577.03;;;10.90;65.96
37892;BME280;45797;47.466;9.486;2023-03-09T07:52:04;94591.50;;;10.94;66.08
37892;BME280;45797;47.466;9.486;2023-03-09T07:57:04;94601.25;;;10.64;66.52
37892;BME280;45797;47.466;9.486;2023-03-09T08:02:08;94603.59;;;10.48;67.31
37892;BME280;45797;47.466;9.486;2023-03-09T08:07:23;94578.41;;;10.37;67.22
37892;BME280;45797;47.466;9.486;2023-03-09T08:12:25;94572.88;;;10.40;67.63
37892;BME280;45797;47.466;9.486;2023-03-09T08:17:25;94578.69;;;10.34;67.14
37892;BME280;45797;47.466;9.486;2023-03-09T08:22:27;94597.00;;;10.44;66.69
37892;BME280;45797;47.466;9.486;2023-03-09T08:27:27;94578.09;;;10.50;67.04
37892;BME280;45797;47.466;9.486;2023-03-09T08:32:29;94563.91;;;10.62;66.77
37892;BME280;45797;47.466;9.486;2023-03-09T08:37:31;94564.81;;;10.80;66.25
37892;BME280;45797;47.466;9.486;2023-03-09T08:42:34;94558.13;;;10.96;65.65
37892;BME280;45797;47.466;9.486;2023-03-09T08:47:35;94566.22;;;11.12;65.62
37892;BME280;45797;47.466;9.486;2023-03-09T08:52:35;94577.84;;;11.27;65.14
37892;BME280;45797;47.466;9.486;2023-03-09T08:57:39;94593.25;;;11.40;64.61
37892;BME280;45797;47.466;9.486;2023-03-09T09:02:42;94603.41;;;11.53;64.40
37892;BME280;45797;47.466;9.486;2023-03-09T09:07:42;94633.56;;;11.66;64.37
37892;BME280;45797;47.466;9.486;2023-03-09T09:12:43;94620.09;;;11.79;63.54
37892;BME280;45797;47.466;9.486;2023-03-09T09:17:43;94606.50;;;11.93;63.51
37892;BME280;45797;47.466;9.486;2023-03-09T09:22:43;94627.41;;;12.03;62.92
37892;BME280;45797;47.466;9.486;2023-03-09T09:27:44;94639.97;;;12.09;62.36
37892;BME280;45797;47.466;9.486;2023-03-09T09:32:46;94656.38;;;12.11;62.77
37892;BME280;45797;47.466;9.486;2023-03-09T09:37:47;94648.34;;;12.13;62.39
37892;BME280;45797;47.466;9.486;2023-03-09T09:42:54;94656.72;;;12.26;62.07
37892;BME280;45797;47.466;9.486;2023-03-09T09:48:03;94676.00;;;12.35;62.00
37892;BME280;45797;47.466;9.486;2023-03-09T09:58:46;94679.13;;;12.38;61.96
37892;BME280;45797;47.466;9.486;2023-03-09T10:03:59;94691.75;;;12.52;61.14
37892;BME280;45797;47.466;9.486;2023-03-09T10:09:23;94698.44;;;12.65;60.93
37892;BME280;45797;47.466;9.486;2023-03-09T10:14:30;94690.06;;;12.87;60.43
37892;BME280;45797;47.466;9.486;2023-03-09T10:19:36;94706.38;;;13.08;59.63
37892;BME280;45797;47.466;9.486;2023-03-09T10:24:41;94691.41;;;13.27;59.25
37892;BME280;45797;47.466;9.486;2023-03-09T10:30:19;94692.84;;;13.47;58.68
37892;BME280;45797;47.466;9.486;2023-03-09T10:40:35;94722.38;;;14.01;57.36
37892;BME280;45797;47.466;9.486;2023-03-09T10:45:44;94717.03;;;14.19;56.94
37892;BME280;45797;47.466;9.486;2023-03-09T10:51:04;94702.28;;;14.42;56.49
37892;BME280;45797;47.466;9.486;2023-03-09T10:56:24;94702.53;;;14.73;56.11
37892;BME280;45797;47.466;9.486;2023-03-09T11:01:43;94699.88;;;15.06;54.96
37892;BME280;45797;47.466;9.486;2023-03-09T11:06:44;94706.66;;;15.25;54.73
37892;BME280;45797;47.466;9.486;2023-03-09T11:11:48;94716.72;;;15.37;54.69
37892;BME280;45797;47.466;9.486;2023-03-09T11:16:55;94702.69;;;15.45;54.30
37892;BME280;45797;47.466;9.486;2023-03-09T11:22:10;94713.38;;;15.68;54.10
37892;BME280;45797;47.466;9.486;2023-03-09T11:27:27;94710.50;;;16.02;53.04
37892;BME280;45797;47.466;9.486;2023-03-09T11:32:30;94696.38;;;16.18;53.12
37892;BME280;45797;47.466;9.486;2023-03-09T11:37:37;94729.16;;;16.40;52.34
37892;BME280;45797;47.466;9.486;2023-03-09T11:48:35;94683.22;;;16.72;51.55
37892;BME280;45797;47.466;9.486;2023-03-09T11:54:05;94686.16;;;17.00;50.79
37892;BME280;45797;47.466;9.486;2023-03-09T12:04:35;94680.22;;;16.98;51.08
37892;BME280;45797;47.466;9.486;2023-03-09T12:15:11;94690.50;;;16.93;50.91
37892;BME280;45797;47.466;9.486;2023-03-09T12:25:30;94665.84;;;16.77;50.64
37892;BME280;45797;47.466;9.486;2023-03-09T12:30:32;94661.72;;;16.67;50.65
37892;BME280;45797;47.466;9.486;2023-03-09T12:40:46;94644.50;;;16.79;50.07
37892;BME280;45797;47.466;9.486;2023-03-09T12:45:49;94645.34;;;16.94;49.61
37892;BME280;45797;47.466;9.486;2023-03-09T12:56:12;94636.13;;;17.28;48.62
37892;BME280;45797;47.466;9.486;2023-03-09T13:12:16;94607.94;;;17.64;47.21
37892;BME280;45797;47.466;9.486;2023-03-09T13:23:17;94622.09;;;17.57;47.68
37892;BME280;45797;47.466;9.486;2023-03-09T13:28:46;94619.41;;;17.42;47.88
37892;BME280;45797;47.466;9.486;2023-03-09T13:33:49;94607.75;;;17.36;47.64
37892;BME280;45797;47.466;9.486;2023-03-09T13:39:01;94604.91;;;17.38;47.83
37892;BME280;45797;47.466;9.486;2023-03-09T13:44:20;94600.34;;;17.17;48.11
37892;BME280;45797;47.466;9.486;2023-03-09T13:49:37;94605.97;;;17.14;47.86
37892;BME280;45797;47.466;9.486;2023-03-09T13:54:57;94591.66;;;17.08;48.02
37892;BME280;45797;47.466;9.486;2023-03-09T14:00:16;94586.28;;;17.31;47.39
37892;BME280;45797;47.466;9.486;2023-03-09T14:05:21;94583.66;;;17.46;46.82
37892;BME280;45797;47.466;9.486;2023-03-09T14:10:35;94576.72;;;17.45;47.23
37892;BME280;45797;47.466;9.486;2023-03-09T14:15:38;94567.38;;;17.49;46.84
37892;BME280;45797;47.466;9.486;2023-03-09T14:20:39;94565.56;;;17.79;46.10
37892;BME280;45797;47.466;9.486;2023-03-09T14:25:41;94553.13;;;17.94;46.16
37892;BME280;45797;47.466;9.486;2023-03-09T14:30:52;94539.56;;;18.25;45.81
37892;BME280;45797;47.466;9.486;2023-03-09T14:36:16;94541.84;;;18.71;44.82
37892;BME280;45797;47.466;9.486;2023-03-09T14:41:20;94541.97;;;18.84;44.76
37892;BME280;45797;47.466;9.486;2023-03-09T14:46:30;94525.00;;;19.07;44.21
37892;BME280;45797;47.466;9.486;2023-03-09T14:51:35;94523.47;;;19.32;43.77
37892;BME280;45797;47.466;9.486;2023-03-09T14:56:52;94519.34;;;19.23;43.85
37892;BME280;45797;47.466;9.486;2023-03-09T15:01:57;94507.91;;;19.23;43.85
37892;BME280;45797;47.466;9.486;2023-03-09T15:07:03;94507.28;;;19.55;43.26
37892;BME280;45797;47.466;9.486;2023-03-09T15:12:06;94497.53;;;19.69;43.09
37892;BME280;45797;47.466;9.486;2023-03-09T15:17:14;94496.44;;;20.18;42.27
37892;BME280;45797;47.466;9.486;2023-03-09T15:22:16;94489.59;;;20.57;41.57
37892;BME280;45797;47.466;9.486;2023-03-09T15:27:27;94479.97;;;20.75;41.72
37892;BME280;45797;47.466;9.486;2023-03-09T15:32:27;94472.72;;;21.09;41.01
37892;BME280;45797;47.466;9.486;2023-03-09T15:37:28;94474.53;;;21.22;41.07
37892;BME280;45797;47.466;9.486;2023-03-09T15:42:36;94469.81;;;21.37;40.99
37892;BME280;45797;47.466;9.486;2023-03-09T15:47:37;94468.34;;;21.48;41.05
37892;BME280;45797;47.466;9.486;2023-03-09T15:52:51;94470.34;;;21.59;40.97
37892;BME280;45797;47.466;9.486;2023-03-09T15:57:52;94470.53;;;21.71;40.44
37892;BME280;45797;47.466;9.486;2023-03-09T16:03:05;94463.50;;;21.83;40.72
37892;BME280;45797;47.466;9.486;2023-03-09T16:08:12;94461.09;;;22.13;40.04
37892;BME280;45797;47.466;9.486;2023-03-09T16:13:30;94462.91;;;22.19;40.34
37892;BME280;45797;47.466;9.486;2023-03-09T16:18:32;94451.56;;;21.85;41.23
37892;BME280;45797;47.466;9.486;2023-03-09T16:23:39;94456.09;;;21.85;41.17
37892;BME280;45797;47.466;9.486;2023-03-09T16:28:40;94445.97;;;21.55;41.69
37892;BME280;45797;47.466;9.486;2023-03-09T16:33:42;94437.84;;;21.37;41.53
37892;BME280;45797;47.466;9.486;2023-03-09T16:38:52;94443.47;;;20.89;42.46
37892;BME280;45797;47.466;9.486;2023-03-09T16:43:54;94438.56;;;20.20;43.16
37892;BME280;45797;47.466;9.486;2023-03-09T16:48:54;94434.69;;;19.48;44.08
37892;BME280;45797;47.466;9.486;2023-03-09T16:53:58;94427.22;;;18.82;45.01
37892;BME280;45797;47.466;9.486;2023-03-09T16:58:59;94421.47;;;18.23;45.50
37892;BME280;45797;47.466;9.486;2023-03-09T17:03:59;94423.63;;;17.70;46.09
37892;BME280;45797;47.466;9.486;2023-03-09T17:09:03;94419.00;;;17.21;46.76
37892;BME280;45797;47.466;9.486;2023-03-09T17:14:05;94418.22;;;16.76;46.92
37892;BME280;45797;47.466;9.486;2023-03-09T17:19:05;94409.69;;;16.37;47.13
37892;BME280;45797;47.466;9.486;2023-03-09T17:24:05;94408.69;;;16.00;47.88
37892;BME280;45797;47.466;9.486;2023-03-09T17:29:08;94397.22;;;15.70;47.88
37892;BME280;45797;47.466;9.486;2023-03-09T17:34:10;94398.88;;;15.40;47.94
37892;BME280;45797;47.466;9.486;2023-03-09T17:39:13;94400.84;;;15.15;48.04
37892;BME280;45797;47.466;9.486;2023-03-09T17:50:15;94388.88;;;14.65;48.51
37892;BME280;45797;47.466;9.486;2023-03-09T18:01:28;94394.22;;;14.33;48.17
37892;BME280;45797;47.466;9.486;2023-03-09T18:06:31;94394.88;;;14.26;48.43
37892;BME280;45797;47.466;9.486;2023-03-09T18:11:38;94385.69;;;14.14;48.16
37892;BME280;45797;47.466;9.486;2023-03-09T18:16:40;94392.63;;;14.07;48.18
37892;BME280;45797;47.466;9.486;2023-03-09T18:21:49;94395.25;;;13.99;47.85
37892;BME280;45797;47.466;9.486;2023-03-09T18:26:51;94393.31;;;13.93;47.76
37892;BME280;45797;47.466;9.486;2023-03-09T18:31:58;94388.69;;;13.87;47.44
37892;BME280;45797;47.466;9.486;2023-03-09T18:37:01;94384.72;;;13.83;47.54
37892;BME280;45797;47.466;9.486;2023-03-09T18:42:03;94381.94;;;13.76;47.48
37892;BME280;45797;47.466;9.486;2023-03-09T18:47:14;94375.69;;;13.69;47.05
37892;BME280;45797;47.466;9.486;2023-03-09T18:52:15;94373.53;;;13.64;47.34
37892;BME280;45797;47.466;9.486;2023-03-09T18:57:16;94378.66;;;13.58;47.28
37892;BME280;45797;47.466;9.486;2023-03-09T19:02:16;94382.59;;;13.54;46.72
37892;BME280;45797;47.466;9.486;2023-03-09T19:07:18;94373.22;;;13.51;46.80
37892;BME280;45797;47.466;9.486;2023-03-09T19:12:20;94371.25;;;13.53;46.56
37892;BME280;45797;47.466;9.486;2023-03-09T19:17:22;94375.19;;;13.49;46.85
37892;BME280;45797;47.466;9.486;2023-03-09T19:22:24;94380.63;;;13.48;46.74
37892;BME280;45797;47.466;9.486;2023-03-09T19:27:30;94385.38;;;13.44;46.51
37892;BME280;45797;47.466;9.486;2023-03-09T19:32:30;94394.25;;;13.43;46.59
37892;BME280;45797;47.466;9.486;2023-03-09T19:37:31;94389.97;;;13.42;46.37
37892;BME280;45797;47.466;9.486;2023-03-09T19:42:33;94379.47;;;13.42;46.29
37892;BME280;45797;47.466;9.486;2023-03-09T19:47:34;94380.63;;;13.39;46.17
37892;BME280;45797;47.466;9.486;2023-03-09T19:52:38;94383.41;;;13.38;46.05
37892;BME280;45797;47.466;9.486;2023-03-09T19:57:42;94379.81;;;13.39;45.90
37892;BME280;45797;47.466;9.486;2023-03-09T20:03:02;94376.00;;;13.33;45.89
37892;BME280;45797;47.466;9.486;2023-03-09T20:08:03;94369.59;;;13.36;46.11
37892;BME280;45797;47.466;9.486;2023-03-09T20:13:03;94366.31;;;13.34;45.80
37892;BME280;45797;47.466;9.486;2023-03-09T20:18:05;94366.47;;;13.32;45.79
37892;BME280;45797;47.466;9.486;2023-03-09T20:23:08;94365.00;;;13.30;45.43
37892;BME280;45797;47.466;9.486;2023-03-09T20:28:22;94371.22;;;13.21;45.70
37892;BME280;45797;47.466;9.486;2023-03-09T20:33:24;94357.09;;;13.22;45.73
37892;BME280;45797;47.466;9.486;2023-03-09T20:38:25;94368.75;;;13.19;45.98
37892;BME280;45797;47.466;9.486;2023-03-09T20:43:27;94367.09;;;13.18;45.87
37892;BME280;45797;47.466;9.486;2023-03-09T20:48:29;94367.78;;;13.20;46.21
37892;BME280;45797;47.466;9.486;2023-03-09T20:53:30;94364.97;;;13.22;45.56
37892;BME280;45797;47.466;9.486;2023-03-09T20:58:46;94352.31;;;13.25;45.50
37892;BME280;45797;47.466;9.486;2023-03-09T21:03:46;94338.38;;;13.33;45.34
37892;BME280;45797;47.466;9.486;2023-03-09T21:08:50;94343.63;;;13.41;45.32
37892;BME280;45797;47.466;9.486;2023-03-09T21:14:01;94339.53;;;13.47;45.45
37892;BME280;45797;47.466;9.486;2023-03-09T21:19:02;94338.03;;;13.52;45.14
37892;BME280;45797;47.466;9.486;2023-03-09T21:24:06;94333.13;;;13.57;45.03
37892;BME280;45797;47.466;9.486;2023-03-09T21:29:16;94326.03;;;13.58;45.08
37892;BME280;45797;47.466;9.486;2023-03-09T21:34:20;94313.19;;;13.63;44.97
37892;BME280;45797;47.466;9.486;2023-03-09T21:39:22;94296.59;;;13.62;45.13
37892;BME280;45797;47.466;9.486;2023-03-09T21:44:24;94302.50;;;13.64;45.25
37892;BME280;45797;47.466;9.486;2023-03-09T21:49:27;94309.44;;;13.65;44.89
37892;BME280;45797;47.466;9.486;2023-03-09T21:54:29;94305.63;;;13.68;44.86
37892;BME280;45797;47.466;9.486;2023-03-09T21:59:29;94297.09;;;13.66;45.27
37892;BME280;45797;47.466;9.486;2023-03-09T22:04:35;94278.50;;;13.67;45.18
37892;BME280;45797;47.466;9.486;2023-03-09T22:09:54;94263.72;;;13.58;45.14
37892;BME280;45797;47.466;9.486;2023-03-09T22:14:56;94265.84;;;13.55;45.18
37892;BME280;45797;47.466;9.486;2023-03-09T22:19:58;94252.56;;;13.48;45.51
37892;BME280;45797;47.466;9.486;2023-03-09T22:24:59;94230.53;;;13.41;45.55
37892;BME280;45797;47.466;9.486;2023-03-09T22:30:02;94222.81;;;13.39;45.39
37892;BME280;45797;47.466;9.486;2023-03-09T22:35:03;94221.34;;;13.37;45.34
37892;BME280;45797;47.466;9.486;2023-03-09T22:40:05;94205.88;;;13.34;45.54
37892;BME280;45797;47.466;9.486;2023-03-09T22:45:09;94198.00;;;13.34;45.45
37892;BME280;45797;47.466;9.486;2023-03-09T22:50:11;94188.47;;;13.33;45.53
37892;BME280;45797;47.466;9.486;2023-03-09T22:55:18;94165.63;;;13.33;45.22
37892;BME280;45797;47.466;9.486;2023-03-09T23:00:19;94148.03;;;13.34;45.28
37892;BME280;45797;47.466;9.486;2023-03-09T23:05:32;94140.47;;;13.31;45.19
37892;BME280;45797;47.466;9.486;2023-03-09T23:10:40;94127.50;;;13.37;44.96
37892;BME280;45797;47.466;9.486;2023-03-09T23:15:41;94115.00;;;13.39;45.08
37892;BME280;45797;47.466;9.486;2023-03-09T23:20:46;94106.56;;;13.44;44.74
37892;BME280;45797;47.466;9.486;2023-03-09T23:25:51;94086.22;;;13.46;44.63
37892;BME280;45797;47.466;9.486;2023-03-09T23:30:56;94084.69;;;13.52;44.33
37892;BME280;45797;47.466;9.486;2023-03-09T23:35:56;94076.22;;;13.33;45.45
37892;BME280;45797;47.466;9.486;2023-03-09T23:40:58;94066.69;;;13.16;46.13
37892;BME280;45797;47.466;9.486;2023-03-09T23:46:30;94054.63;;;12.99;45.83
37892;BME280;45797;47.466;9.486;2023-03-09T23:51:31;94046.06;;;12.88;46.54
37892;BME280;45797;47.466;9.486;2023-03-09T23:56:36;94043.16;;;12.75;46.73
